createdAt,value
2018-07-09T00:02:20.956Z,16.32
2018-07-09T00:04:49.272Z,16.37
2018-07-09T00:07:18.175Z,16.36
2018-07-09T00:09:45.910Z,16.30
2018-07-09T00:12:14.809Z,16.27
2018-07-09T00:14:42.546Z,16.25
2018-07-09T00:17:10.872Z,16.31
2018-07-09T00:19:39.193Z,16.36
2018-07-09T00:22:07.513Z,16.20
2018-07-09T00:24:35.846Z,16.02
2018-07-09T00:27:04.774Z,15.87
2018-07-09T00:29:32.513Z,15.84
2018-07-09T00:32:01.408Z,15.81
2018-07-09T00:34:29.733Z,15.79
2018-07-09T00:36:57.476Z,15.74
2018-07-09T00:39:26.379Z,15.68
2018-07-09T00:41:54.699Z,15.66
2018-07-09T00:44:22.440Z,15.68
2018-07-09T00:46:51.341Z,15.67
2018-07-09T00:49:19.676Z,15.74
2018-07-09T00:51:47.437Z,15.93
2018-07-09T00:54:16.209Z,16.14
2018-07-09T00:56:44.052Z,16.32
2018-07-09T00:59:12.373Z,16.45
2018-07-09T01:01:41.002Z,16.56
2018-07-09T01:04:09.016Z,16.66
2018-07-09T01:06:37.935Z,16.74
2018-07-09T01:09:05.678Z,16.77
2018-07-09T01:11:36.480Z,16.81
2018-07-09T01:14:04.217Z,16.82
2018-07-09T01:16:32.534Z,16.84
2018-07-09T01:19:01.430Z,16.85
2018-07-09T01:21:29.750Z,16.88
2018-07-09T01:23:58.061Z,16.92
2018-07-09T01:26:25.808Z,16.97
2018-07-09T01:28:54.154Z,17.03
2018-07-09T01:31:23.048Z,17.06
2018-07-09T01:33:51.366Z,17.08
2018-07-09T01:36:19.677Z,16.99
2018-07-09T01:38:47.416Z,16.98
2018-07-09T01:41:16.327Z,16.98
2018-07-09T01:43:44.656Z,16.98
2018-07-09T01:46:12.843Z,17.01
2018-07-09T01:48:41.111Z,17.05
2018-07-09T01:51:09.045Z,17.03
2018-07-09T01:53:37.939Z,17.03
2018-07-09T01:56:05.891Z,16.97
2018-07-09T01:58:34.105Z,16.93
2018-07-09T02:01:02.328Z,16.86
2018-07-09T02:03:31.231Z,16.91
2018-07-09T02:05:59.549Z,16.90
2018-07-09T02:08:27.355Z,16.92
2018-07-09T02:10:55.673Z,16.97
2018-07-09T02:13:23.986Z,17.05
2018-07-09T02:15:52.766Z,17.12
2018-07-09T02:18:20.625Z,17.13
2018-07-09T02:20:49.518Z,17.13
2018-07-09T02:23:17.835Z,17.10
2018-07-09T02:25:45.628Z,17.14
2018-07-09T02:28:14.456Z,17.04
2018-07-09T02:30:42.793Z,16.96
2018-07-09T02:33:11.124Z,16.97
2018-07-09T02:35:38.861Z,17.07
2018-07-09T02:38:07.644Z,17.13
2018-07-09T02:40:36.110Z,17.19
2018-07-09T02:43:04.441Z,17.22
2018-07-09T02:45:32.189Z,17.26
2018-07-09T02:48:00.522Z,17.33
2018-07-09T02:50:29.426Z,17.35
2018-07-09T02:52:57.745Z,17.39
2018-07-09T02:55:25.482Z,17.43
2018-07-09T02:57:54.385Z,17.48
2018-07-09T03:00:22.707Z,17.53
2018-07-09T03:02:50.452Z,17.52
2018-07-09T03:05:18.769Z,17.54
2018-07-09T03:07:47.699Z,17.44
2018-07-09T03:10:16.016Z,17.31
2018-07-09T03:12:44.344Z,17.31
2018-07-09T03:15:12.655Z,17.29
2018-07-09T03:17:40.405Z,17.26
2018-07-09T03:20:08.718Z,17.27
2018-07-09T03:22:37.036Z,17.33
2018-07-09T03:25:05.427Z,17.40
2018-07-09T03:27:34.238Z,17.52
2018-07-09T03:30:01.982Z,17.62
2018-07-09T03:32:30.900Z,17.69
2018-07-09T03:34:58.629Z,17.73
2018-07-09T03:37:27.665Z,17.79
2018-07-09T03:39:55.980Z,17.84
2018-07-09T03:42:23.717Z,17.86
2018-07-09T03:44:52.037Z,17.91
2018-07-09T03:47:20.928Z,17.93
2018-07-09T03:49:48.670Z,17.92
2018-07-09T03:52:17.039Z,18.01
2018-07-09T03:54:45.856Z,18.12
2018-07-09T03:57:14.207Z,18.21
2018-07-09T03:59:42.534Z,18.31
2018-07-09T04:02:10.296Z,18.39
2018-07-09T04:04:38.597Z,18.48
2018-07-09T04:07:07.515Z,18.51
2018-07-09T04:09:35.269Z,18.56
2018-07-09T04:12:03.744Z,18.61
2018-07-09T04:14:31.926Z,18.66
2018-07-09T04:17:00.821Z,18.64
2018-07-09T04:19:28.576Z,18.63
2018-07-09T04:21:57.036Z,18.65
2018-07-09T04:24:25.231Z,18.70
2018-07-09T04:26:54.113Z,18.76
2018-07-09T04:29:22.701Z,18.76
2018-07-09T04:31:50.495Z,18.76
2018-07-09T04:34:19.377Z,18.76
2018-07-09T04:36:47.117Z,18.77
2018-07-09T04:39:16.016Z,18.74
2018-07-09T04:41:44.334Z,18.75
2018-07-09T04:44:12.654Z,18.78
2018-07-09T04:46:40.984Z,18.83
2018-07-09T04:49:08.719Z,18.82
2018-07-09T04:51:37.032Z,18.80
2018-07-09T04:54:05.349Z,18.80
2018-07-09T04:56:34.242Z,18.74
2018-07-09T04:59:02.556Z,18.76
2018-07-09T05:01:30.349Z,18.76
2018-07-09T05:03:59.179Z,18.75
2018-07-09T05:06:26.923Z,18.78
2018-07-09T05:08:55.243Z,18.79
2018-07-09T05:11:24.134Z,18.83
2018-07-09T05:13:52.083Z,18.84
2018-07-09T05:16:20.786Z,18.84
2018-07-09T05:18:48.526Z,18.90
2018-07-09T05:21:16.884Z,18.96
2018-07-09T05:23:45.734Z,19.01
2018-07-09T05:26:14.061Z,18.99
2018-07-09T05:28:42.377Z,19.04
2018-07-09T05:31:10.703Z,19.07
2018-07-09T05:33:38.429Z,19.16
2018-07-09T05:36:06.785Z,19.24
2018-07-09T05:38:35.681Z,19.31
2018-07-09T05:41:04.037Z,19.33
2018-07-09T05:43:32.125Z,19.39
2018-07-09T05:46:00.680Z,19.51
2018-07-09T05:48:29.006Z,19.57
2018-07-09T05:50:57.345Z,19.53
2018-07-09T05:53:25.131Z,19.57
2018-07-09T05:55:53.980Z,19.60
2018-07-09T05:58:21.718Z,19.59
2018-07-09T06:00:50.610Z,19.63
2018-07-09T06:03:18.347Z,19.65
2018-07-09T06:05:46.667Z,19.60
2018-07-09T06:08:14.975Z,19.67
2018-07-09T06:10:43.288Z,19.75
2018-07-09T06:13:11.600Z,19.80
2018-07-09T06:15:39.921Z,19.86
2018-07-09T06:18:08.416Z,19.92
2018-07-09T06:20:36.719Z,19.98
2018-07-09T06:23:05.042Z,20.11
2018-07-09T06:25:33.978Z,20.21
2018-07-09T06:28:01.691Z,20.30
2018-07-09T06:30:30.027Z,20.39
2018-07-09T06:32:58.322Z,20.54
2018-07-09T06:35:26.628Z,20.70
2018-07-09T06:37:55.855Z,20.89
2018-07-09T06:40:24.173Z,21.04
2018-07-09T06:42:53.085Z,21.10
2018-07-09T06:45:20.834Z,21.17
2018-07-09T06:47:49.150Z,21.34
2018-07-09T06:50:17.461Z,21.56
2018-07-09T06:52:45.777Z,21.75
2018-07-09T06:55:14.095Z,21.82
2018-07-09T06:57:42.993Z,21.87
2018-07-09T07:00:10.737Z,21.98
2018-07-09T07:02:39.058Z,22.16
2018-07-09T07:05:07.382Z,22.36
2018-07-09T07:07:35.705Z,22.46
2018-07-09T07:10:04.016Z,22.57
2018-07-09T07:12:32.923Z,22.68
2018-07-09T07:15:01.546Z,22.73
2018-07-09T07:17:29.858Z,22.76
2018-07-09T07:19:58.755Z,22.81
2018-07-09T07:22:27.070Z,22.82
2018-07-09T07:24:55.400Z,22.90
2018-07-09T07:27:23.981Z,22.81
2018-07-09T07:29:52.288Z,22.79
2018-07-09T07:32:20.612Z,22.75
2018-07-09T07:34:58.634Z,22.75
2018-07-09T07:37:39.504Z,22.82
2018-07-09T07:40:21.499Z,22.94
2018-07-09T07:42:49.677Z,23.07
2018-07-09T07:45:18.094Z,23.20
2018-07-09T07:47:46.427Z,23.39
2018-07-09T07:50:15.357Z,23.50
2018-07-09T07:52:43.059Z,23.67
2018-07-09T07:55:11.381Z,23.74
2018-07-09T07:57:39.700Z,23.82
2018-07-09T08:00:08.015Z,23.94
2018-07-09T08:02:36.332Z,23.95
2018-07-09T08:05:05.224Z,23.94
2018-07-09T08:07:32.968Z,23.95
2018-07-09T08:10:01.293Z,24.00
2018-07-09T08:13:00.545Z,24.01
2018-07-09T08:14:58.556Z,23.98
2018-07-09T08:17:26.847Z,23.95
2018-07-09T08:19:56.602Z,23.90
2018-07-09T08:22:23.054Z,23.93
2018-07-09T08:24:51.828Z,23.96
2018-07-09T08:27:20.125Z,24.03
2018-07-09T08:29:47.863Z,24.02
2018-07-09T08:32:16.760Z,24.06
2018-07-09T08:34:44.572Z,24.15
2018-07-09T08:37:13.412Z,24.24
2018-07-09T08:39:41.150Z,24.31
2018-07-09T08:42:10.074Z,24.37
2018-07-09T08:44:38.382Z,24.48
2018-07-09T08:47:06.199Z,24.47
2018-07-09T08:49:34.448Z,24.57
2018-07-09T08:52:03.349Z,24.64
2018-07-09T08:54:31.101Z,24.65
2018-07-09T08:57:00.011Z,24.71
2018-07-09T08:59:27.763Z,24.80
2018-07-09T09:01:56.089Z,24.96
2018-07-09T09:04:25.058Z,25.09
2018-07-09T09:06:53.372Z,25.27
2018-07-09T09:09:21.696Z,25.37
2018-07-09T09:11:50.124Z,25.38
2018-07-09T09:14:17.856Z,25.47
2018-07-09T09:16:46.866Z,25.61
2018-07-09T09:19:15.171Z,25.59
2018-07-09T09:21:43.485Z,25.49
2018-07-09T09:24:11.239Z,25.35
2018-07-09T09:26:40.157Z,25.28
2018-07-09T09:29:07.938Z,25.18
2018-07-09T09:31:36.312Z,25.23
2018-07-09T09:34:04.570Z,25.39
2018-07-09T09:36:33.480Z,25.49
2018-07-09T09:39:01.799Z,25.54
2018-07-09T09:41:30.119Z,25.51
2018-07-09T09:43:59.548Z,25.55
2018-07-09T09:46:27.122Z,25.56
2018-07-09T09:48:55.433Z,25.57
2018-07-09T09:51:23.774Z,25.70
2018-07-09T09:53:52.087Z,25.82
2018-07-09T09:56:20.415Z,25.84
2018-07-09T09:58:48.732Z,25.88
2018-07-09T10:01:16.472Z,26.02
2018-07-09T10:03:45.361Z,26.09
2018-07-09T10:06:13.152Z,26.16
2018-07-09T10:08:42.083Z,26.24
2018-07-09T10:11:09.821Z,26.32
2018-07-09T10:13:38.714Z,26.42
2018-07-09T10:16:06.452Z,26.50
2018-07-09T10:18:35.361Z,26.56
2018-07-09T10:21:03.685Z,26.67
2018-07-09T10:23:31.479Z,26.79
2018-07-09T10:25:59.735Z,26.92
2018-07-09T10:28:28.053Z,26.94
2018-07-09T10:30:56.365Z,26.83
2018-07-09T10:33:25.268Z,26.40
2018-07-09T10:35:53.026Z,26.12
2018-07-09T10:38:21.938Z,25.99
2018-07-09T10:40:50.263Z,25.94
2018-07-09T10:43:18.582Z,25.91
2018-07-09T10:45:46.931Z,25.84
2018-07-09T10:48:14.689Z,25.74
2018-07-09T10:50:43.569Z,25.62
2018-07-09T10:53:11.322Z,25.55
2018-07-09T10:55:40.263Z,25.52
2018-07-09T10:58:08.586Z,25.48
2018-07-09T11:00:36.389Z,25.45
2018-07-09T11:03:05.255Z,25.41
2018-07-09T11:05:33.084Z,25.35
2018-07-09T11:08:01.333Z,25.24
2018-07-09T11:10:30.234Z,25.18
2018-07-09T11:12:58.554Z,25.13
2018-07-09T11:15:26.296Z,25.07
2018-07-09T11:17:55.193Z,25.01
2018-07-09T11:20:22.982Z,24.95
2018-07-09T11:22:51.850Z,24.86
2018-07-09T11:25:20.173Z,24.77
2018-07-09T11:27:47.917Z,24.70
2018-07-09T11:30:16.237Z,24.65
2018-07-09T11:32:44.545Z,24.58
2018-07-09T11:35:13.479Z,24.44
2018-07-09T11:37:41.876Z,24.32
2018-07-09T11:40:09.549Z,24.12
2018-07-09T11:42:37.891Z,23.87
2018-07-09T11:45:06.218Z,23.70
2018-07-09T11:47:34.578Z,23.60
2018-07-09T11:50:02.906Z,22.91
2018-07-09T11:52:31.820Z,21.92
2018-07-09T11:55:00.139Z,21.43
2018-07-09T11:57:28.491Z,21.22
2018-07-09T11:59:56.245Z,21.04
2018-07-09T12:02:24.568Z,20.96
2018-07-09T12:04:54.101Z,20.91
2018-07-09T12:07:21.219Z,20.82
2018-07-09T12:09:50.123Z,20.84
2018-07-09T12:12:17.872Z,20.85
2018-07-09T12:14:46.196Z,20.85
2018-07-09T12:17:14.531Z,20.93
2018-07-09T12:19:42.982Z,20.99
2018-07-09T12:22:11.792Z,21.03
2018-07-09T12:24:40.119Z,21.03
2018-07-09T12:27:08.462Z,20.92
2018-07-09T12:29:36.788Z,20.84
2018-07-09T12:32:04.547Z,20.95
2018-07-09T12:34:32.868Z,21.13
2018-07-09T12:37:01.201Z,21.25
2018-07-09T12:39:29.532Z,21.39
2018-07-09T12:41:58.440Z,21.56
2018-07-09T12:44:26.771Z,21.73
2018-07-09T12:46:55.098Z,21.83
2018-07-09T12:49:22.976Z,21.93
2018-07-09T12:51:51.870Z,22.04
2018-07-09T12:54:19.622Z,22.13
2018-07-09T12:56:47.960Z,22.19
2018-07-09T12:59:16.843Z,22.30
2018-07-09T13:01:45.223Z,22.38
2018-07-09T13:04:13.489Z,22.46
2018-07-09T13:06:42.077Z,22.56
2018-07-09T13:09:09.822Z,22.69
2018-07-09T13:11:38.730Z,22.74
2018-07-09T13:14:07.024Z,22.79
2018-07-09T13:16:35.338Z,22.82
2018-07-09T13:19:03.672Z,22.93
2018-07-09T13:21:31.408Z,23.09
2018-07-09T13:23:59.726Z,23.24
2018-07-09T13:26:28.691Z,23.37
2018-07-09T13:28:57.011Z,23.45
2018-07-09T13:31:25.337Z,23.50
2018-07-09T13:33:53.650Z,23.48
2018-07-09T13:36:21.967Z,23.41
2018-07-09T13:38:49.707Z,23.34
2018-07-09T13:41:18.048Z,23.31
2018-07-09T13:43:48.497Z,23.28
2018-07-09T13:46:16.815Z,23.25
2018-07-09T13:48:44.557Z,23.25
2018-07-09T13:51:13.496Z,23.23
2018-07-09T13:53:41.241Z,23.22
2018-07-09T13:56:10.150Z,23.17
2018-07-09T13:58:38.470Z,23.13
2018-07-09T14:01:06.811Z,23.08
2018-07-09T14:03:35.136Z,23.02
2018-07-09T14:06:02.880Z,22.95
2018-07-09T14:08:31.798Z,22.97
2018-07-09T14:11:00.126Z,22.99
2018-07-09T14:13:28.463Z,22.99
2018-07-09T14:15:56.788Z,23.02
2018-07-09T14:18:25.112Z,23.02
2018-07-09T14:20:53.449Z,22.97
2018-07-09T14:23:21.771Z,22.91
2018-07-09T14:25:50.126Z,22.91
2018-07-09T14:28:18.456Z,22.87
2018-07-09T14:30:46.761Z,22.83
2018-07-09T14:33:14.504Z,22.81
2018-07-09T14:35:43.397Z,22.81
2018-07-09T14:38:11.150Z,22.84
2018-07-09T14:40:40.055Z,22.92
2018-07-09T14:43:08.379Z,22.92
2018-07-09T14:45:36.847Z,22.97
2018-07-09T14:48:04.592Z,22.98
2018-07-09T14:50:32.918Z,22.96
2018-07-09T14:53:02.031Z,22.88
2018-07-09T14:55:33.127Z,22.91
2018-07-09T14:58:01.438Z,22.98
2018-07-09T15:00:29.762Z,23.02
2018-07-09T15:02:58.255Z,23.10
2018-07-09T15:05:29.653Z,23.22
2018-07-09T15:07:57.481Z,23.32
2018-07-09T15:10:25.730Z,23.40
2018-07-09T15:12:54.858Z,23.46
2018-07-09T15:15:23.415Z,23.50
2018-07-09T15:17:51.791Z,23.51
2018-07-09T15:20:19.552Z,23.38
2018-07-09T15:22:48.427Z,23.28
2018-07-09T15:25:16.172Z,23.18
2018-07-09T15:27:45.080Z,23.10
2018-07-09T15:30:12.819Z,22.90
2018-07-09T15:32:41.748Z,22.77
2018-07-09T15:35:10.061Z,22.63
2018-07-09T15:37:38.014Z,22.50
2018-07-09T15:40:06.775Z,22.52
2018-07-09T15:42:35.122Z,22.46
2018-07-09T15:45:03.652Z,22.49
2018-07-09T15:47:31.398Z,22.47
2018-07-09T15:49:59.738Z,22.54
2018-07-09T15:52:28.633Z,22.50
2018-07-09T15:54:56.980Z,22.60
2018-07-09T15:57:25.308Z,22.86
2018-07-09T15:59:53.067Z,23.20
2018-07-09T16:02:22.247Z,23.74
2018-07-09T16:04:50.657Z,24.52
2018-07-09T16:07:19.957Z,25.30
2018-07-09T16:09:48.390Z,25.87
2018-07-09T16:12:16.708Z,26.42
2018-07-09T16:14:45.033Z,27.18
2018-07-09T16:17:13.408Z,27.56
2018-07-09T16:19:41.142Z,28.03
2018-07-09T16:22:10.057Z,28.30
2018-07-09T16:24:38.463Z,28.45
2018-07-09T16:27:06.788Z,28.71
2018-07-09T16:29:34.538Z,28.90
2018-07-09T16:32:03.437Z,28.99
2018-07-09T16:34:31.748Z,28.67
2018-07-09T16:36:59.497Z,28.25
2018-07-09T16:39:27.812Z,28.07
2018-07-09T16:41:56.955Z,27.81
2018-07-09T16:44:24.701Z,27.64
2018-07-09T16:46:53.615Z,27.34
2018-07-09T16:49:21.356Z,27.25
2018-07-09T16:51:50.263Z,26.94
2018-07-09T16:54:18.580Z,26.76
2018-07-09T16:56:46.931Z,26.76
2018-07-09T16:59:15.266Z,26.52
2018-07-09T17:01:43.903Z,26.46
2018-07-09T17:04:12.253Z,26.11
2018-07-09T17:06:40.579Z,25.71
2018-07-09T17:09:08.894Z,25.42
2018-07-09T17:11:37.216Z,25.25
2018-07-09T17:14:05.535Z,25.05
2018-07-09T17:16:33.293Z,24.87
2018-07-09T17:21:41.466Z,24.35
2018-07-09T17:24:10.152Z,24.25
2018-07-09T17:26:38.671Z,24.07
2018-07-09T17:29:06.215Z,23.98
2018-07-09T17:31:35.121Z,23.96
2018-07-09T17:34:02.873Z,23.88
2018-07-09T17:36:32.730Z,23.84
2018-07-09T17:39:00.565Z,23.85
2018-07-09T17:41:29.726Z,23.85
2018-07-09T17:43:58.074Z,23.79
2018-07-09T17:46:26.403Z,23.80
2018-07-09T17:48:54.732Z,23.81
2018-07-09T17:51:22.492Z,23.70
2018-07-09T17:53:50.821Z,23.68
2018-07-09T17:56:19.711Z,23.67
2018-07-09T17:58:48.079Z,23.62
2018-07-09T18:01:16.419Z,23.58
2018-07-09T18:03:44.787Z,23.49
2018-07-09T18:06:13.105Z,23.36
2018-07-09T18:08:41.432Z,23.22
2018-07-09T18:11:09.754Z,23.05
2018-07-09T18:13:38.111Z,22.93
2018-07-09T18:16:06.745Z,22.82
2018-07-09T18:18:35.065Z,22.56
2018-07-09T18:21:03.395Z,22.25
2018-07-09T18:23:31.450Z,21.94
2018-07-09T18:26:00.526Z,21.75
2018-07-09T18:28:28.913Z,21.68
2018-07-09T18:30:57.203Z,21.54
2018-07-09T18:33:28.780Z,21.44
2018-07-09T18:35:57.709Z,21.47
2018-07-09T18:38:26.036Z,21.57
2018-07-09T18:40:55.440Z,21.70
2018-07-09T18:43:24.066Z,21.70
2018-07-09T18:45:52.555Z,21.42
2018-07-09T18:48:21.575Z,21.20
2018-07-09T18:50:49.296Z,21.06
2018-07-09T18:53:18.220Z,21.06
2018-07-09T18:55:46.638Z,21.17
2018-07-09T18:58:14.459Z,21.31
2018-07-09T19:00:43.499Z,21.41
2018-07-09T19:03:11.884Z,21.50
2018-07-09T19:05:40.238Z,21.51
2018-07-09T19:08:11.518Z,21.48
2018-07-09T19:10:39.834Z,21.43
2018-07-09T19:13:08.757Z,21.41
2018-07-09T19:15:37.125Z,21.33
2018-07-09T19:18:17.329Z,21.27
2018-07-09T19:20:53.338Z,21.29
2018-07-09T19:23:21.133Z,21.28
2018-07-09T19:25:48.348Z,21.25
2018-07-09T19:28:17.093Z,21.18
2018-07-09T19:30:45.120Z,21.02
2018-07-09T19:33:12.902Z,20.92
2018-07-09T19:35:40.122Z,20.91
2018-07-09T19:38:08.811Z,20.92
2018-07-09T19:40:36.879Z,20.96
2018-07-09T19:43:04.961Z,21.00
2018-07-09T19:45:32.845Z,21.01
2018-07-09T19:48:00.431Z,21.10
2018-07-09T19:50:29.069Z,21.14
2018-07-09T19:52:56.874Z,21.09
2018-07-09T19:55:24.662Z,21.09
2018-07-09T19:57:51.862Z,21.09
2018-07-09T20:00:19.647Z,21.12
2018-07-09T20:02:47.476Z,20.91
2018-07-09T20:05:15.848Z,20.61
2018-07-09T20:07:43.621Z,20.27
2018-07-09T20:22:07.670Z,19.96
2018-07-09T20:24:35.449Z,19.85
2018-07-09T20:27:03.903Z,19.82
2018-07-09T20:29:31.062Z,19.79
2018-07-09T20:31:59.426Z,19.81
2018-07-09T20:34:27.210Z,19.77
2018-07-09T20:36:54.639Z,19.69
2018-07-09T20:39:22.652Z,19.65
2018-07-09T20:41:50.790Z,19.59
2018-07-09T20:44:18.578Z,19.50
2018-07-09T20:46:46.435Z,19.46
2018-07-09T20:49:14.389Z,19.47
2018-07-09T20:51:42.837Z,19.42
2018-07-09T20:54:10.677Z,19.45
2018-07-09T20:56:38.511Z,19.46
2018-07-09T20:59:06.291Z,19.47
2018-07-09T21:01:33.498Z,19.49
2018-07-09T21:04:02.171Z,19.54
2018-07-09T21:06:29.365Z,19.64
2018-07-09T21:08:57.729Z,19.68
2018-07-09T21:11:27.554Z,19.72
2018-07-09T21:13:54.814Z,19.71
2018-07-09T21:16:23.237Z,19.69
2018-07-09T21:18:50.920Z,19.72
2018-07-09T21:21:18.132Z,19.84
2018-07-09T21:23:45.902Z,19.93
2018-07-09T21:26:14.259Z,19.99
2018-07-09T21:28:42.042Z,20.01
2018-07-09T21:31:09.234Z,20.07
2018-07-09T21:33:37.600Z,19.90
2018-07-09T21:36:05.372Z,19.77
2018-07-09T21:38:33.158Z,19.62
2018-07-09T21:41:00.950Z,19.59
2018-07-09T21:43:28.737Z,19.50
2018-07-09T21:45:56.544Z,19.51
2018-07-09T21:48:29.784Z,19.56
2018-07-09T21:50:51.533Z,19.51
2018-07-09T21:53:19.317Z,19.49
2018-07-09T21:55:47.589Z,19.43
2018-07-09T21:58:15.341Z,19.37
2018-07-09T22:00:43.130Z,19.34
2018-07-09T22:03:11.526Z,19.36
2018-07-09T22:05:38.843Z,19.38
2018-07-09T22:08:07.212Z,19.37
2018-07-09T22:10:34.418Z,19.46
2018-07-09T22:13:02.772Z,19.53
2018-07-09T22:15:29.977Z,19.54
2018-07-09T22:17:57.754Z,19.54
2018-07-09T22:20:26.112Z,19.59
2018-07-09T22:22:53.313Z,19.71
2018-07-09T22:25:21.665Z,19.84
2018-07-09T22:27:49.445Z,19.95
2018-07-09T22:30:17.185Z,19.90
2018-07-09T22:32:46.077Z,19.80
2018-07-09T22:35:13.822Z,19.78
2018-07-09T22:37:42.464Z,19.63
2018-07-09T22:40:11.456Z,19.52
2018-07-09T22:42:39.753Z,19.54
2018-07-09T22:45:07.487Z,19.68
2018-07-09T22:47:36.390Z,19.78
2018-07-09T22:50:04.125Z,19.86
2018-07-09T22:52:33.022Z,19.92
2018-07-09T22:55:00.765Z,19.98
2018-07-09T22:57:29.076Z,20.03
2018-07-09T22:59:57.971Z,20.08
2018-07-09T23:02:26.286Z,20.09
2018-07-09T23:04:54.018Z,20.09
2018-07-09T23:07:22.361Z,20.10
2018-07-09T23:09:51.252Z,20.09
2018-07-09T23:12:18.994Z,20.09
2018-07-09T23:14:47.302Z,20.11
2018-07-09T23:17:22.064Z,20.05
2018-07-09T23:19:49.795Z,19.95
2018-07-09T23:22:18.571Z,19.78
2018-07-09T23:24:45.782Z,19.74
2018-07-09T23:27:13.558Z,19.77
2018-07-09T23:29:41.915Z,19.81
2018-07-09T23:32:09.110Z,19.87
2018-07-09T23:34:37.467Z,19.91
2018-07-09T23:37:04.666Z,19.96
2018-07-09T23:39:32.447Z,19.96
2018-07-09T23:42:00.804Z,19.93
2018-07-09T23:44:28.582Z,19.92
2018-07-09T23:46:56.364Z,19.93
2018-07-09T23:49:23.563Z,19.92
2018-07-09T23:51:52.346Z,19.89
2018-07-09T23:54:20.137Z,19.85
2018-07-09T23:56:47.881Z,19.76
2018-07-09T23:59:16.787Z,19.55
